sensor_id;sensor_type;location;lat;lon;timestamp;pressure;altitude;pressure_sealevel;temperature;humidity
26697;BME280;14312;52.614;13.496;2023-04-23T00:02:45;100079.47;;;16.46;41.31
26697;BME280;14312;52.614;13.496;2023-04-23T00:05:35;100065.00;;;16.42;41.25
26697;BME280;14312;52.614;13.496;2023-04-23T00:08:22;100072.59;;;16.40;41.12
26697;BME280;14312;52.614;13.496;2023-04-23T00:11:09;100073.66;;;16.39;41.16
26697;BME280;14312;52.614;13.496;2023-04-23T00:13:55;100066.16;;;16.36;41.21
26697;BME280;14312;52.614;13.496;2023-04-23T00:16:41;100066.16;;;16.36;41.14
26697;BME280;14312;52.614;13.496;2023-04-23T00:19:27;100065.69;;;16.34;41.19
26697;BME280;14312;52.614;13.496;2023-04-23T00:22:14;100062.47;;;16.32;41.25
26697;BME280;14312;52.614;13.496;2023-04-23T00:25:01;100054.97;;;16.29;41.25
26697;BME280;14312;52.614;13.496;2023-04-23T00:27:47;100050.22;;;16.26;41.57
26697;BME280;14312;52.614;13.496;2023-04-23T00:30:34;100064.75;;;16.25;41.51
26697;BME280;14312;52.614;13.496;2023-04-23T00:33:20;100053.97;;;16.25;41.58
26697;BME280;14312;52.614;13.496;2023-04-23T00:36:06;100056.97;;;16.23;41.82
26697;BME280;14312;52.614;13.496;2023-04-23T00:38:52;100061.34;;;16.19;41.68
26697;BME280;14312;52.614;13.496;2023-04-23T00:41:39;100050.34;;;16.16;41.45
26697;BME280;14312;52.614;13.496;2023-04-23T00:44:26;100052.03;;;16.12;41.63
26697;BME280;14312;52.614;13.496;2023-04-23T00:47:12;100051.50;;;16.10;41.99
26697;BME280;14312;52.614;13.496;2023-04-23T00:50:00;100048.31;;;16.08;42.07
26697;BME280;14312;52.614;13.496;2023-04-23T00:52:46;100046.13;;;16.10;42.10
26697;BME280;14312;52.614;13.496;2023-04-23T00:55:32;100041.28;;;16.12;42.04
26697;BME280;14312;52.614;13.496;2023-04-23T00:58:18;100043.38;;;16.15;42.43
26697;BME280;14312;52.614;13.496;2023-04-23T01:01:05;100038.22;;;16.18;42.44
26697;BME280;14312;52.614;13.496;2023-04-23T01:03:52;100034.66;;;16.23;42.51
26697;BME280;14312;52.614;13.496;2023-04-23T01:06:38;100035.16;;;16.25;42.37
26697;BME280;14312;52.614;13.496;2023-04-23T01:09:25;100031.06;;;16.27;42.61
26697;BME280;14312;52.614;13.496;2023-04-23T01:12:12;100033.47;;;16.29;42.65
26697;BME280;14312;52.614;13.496;2023-04-23T01:15:00;100026.94;;;16.35;43.00
26697;BME280;14312;52.614;13.496;2023-04-23T01:17:46;100030.13;;;16.37;43.22
26697;BME280;14312;52.614;13.496;2023-04-23T01:20:33;100034.13;;;16.39;43.34
26697;BME280;14312;52.614;13.496;2023-04-23T01:23:20;100032.72;;;16.42;43.33
26697;BME280;14312;52.614;13.496;2023-04-23T01:26:06;100034.56;;;16.47;43.82
26697;BME280;14312;52.614;13.496;2023-04-23T01:28:53;100034.75;;;16.50;43.98
26697;BME280;14312;52.614;13.496;2023-04-23T01:31:40;100034.47;;;16.52;44.45
26697;BME280;14312;52.614;13.496;2023-04-23T01:34:28;100032.50;;;16.57;44.78
26697;BME280;14312;52.614;13.496;2023-04-23T01:37:15;100035.44;;;16.61;44.62
26697;BME280;14312;52.614;13.496;2023-04-23T01:40:02;100027.84;;;16.63;44.86
26697;BME280;14312;52.614;13.496;2023-04-23T01:42:49;100032.06;;;16.69;45.07
26697;BME280;14312;52.614;13.496;2023-04-23T01:45:35;100033.88;;;16.73;45.12
26697;BME280;14312;52.614;13.496;2023-04-23T01:48:21;100029.47;;;16.77;45.33
26697;BME280;14312;52.614;13.496;2023-04-23T01:51:07;100024.91;;;16.78;45.33
26697;BME280;14312;52.614;13.496;2023-04-23T01:53:53;100030.50;;;16.81;45.36
26697;BME280;14312;52.614;13.496;2023-04-23T01:56:39;100027.81;;;16.81;45.08
26697;BME280;14312;52.614;13.496;2023-04-23T01:59:25;100029.41;;;16.82;45.49
26697;BME280;14312;52.614;13.496;2023-04-23T02:02:11;100028.81;;;16.86;45.52
26697;BME280;14312;52.614;13.496;2023-04-23T02:05:00;100025.03;;;16.87;45.47
26697;BME280;14312;52.614;13.496;2023-04-23T02:07:50;100017.97;;;16.91;45.17
26697;BME280;14312;52.614;13.496;2023-04-23T02:10:36;100027.31;;;16.93;44.83
26697;BME280;14312;52.614;13.496;2023-04-23T02:13:22;100021.25;;;17.01;45.07
26697;BME280;14312;52.614;13.496;2023-04-23T02:16:08;100024.88;;;17.10;44.60
26697;BME280;14312;52.614;13.496;2023-04-23T02:18:54;100016.97;;;17.14;44.83
26697;BME280;14312;52.614;13.496;2023-04-23T02:21:40;100014.63;;;17.26;44.69
26697;BME280;14312;52.614;13.496;2023-04-23T02:24:26;100004.81;;;17.30;44.52
26697;BME280;14312;52.614;13.496;2023-04-23T02:27:12;100002.03;;;17.35;44.25
26697;BME280;14312;52.614;13.496;2023-04-23T02:29:58;100020.19;;;17.43;44.76
26697;BME280;14312;52.614;13.496;2023-04-23T02:32:45;100012.59;;;17.45;44.87
26697;BME280;14312;52.614;13.496;2023-04-23T02:35:31;100015.81;;;17.47;44.64
26697;BME280;14312;52.614;13.496;2023-04-23T02:38:17;100019.59;;;17.46;44.50
26697;BME280;14312;52.614;13.496;2023-04-23T02:41:03;100009.41;;;17.43;45.32
26697;BME280;14312;52.614;13.496;2023-04-23T02:43:49;100011.41;;;17.38;44.94
26697;BME280;14312;52.614;13.496;2023-04-23T02:46:35;100002.31;;;17.34;45.30
26697;BME280;14312;52.614;13.496;2023-04-23T02:49:22;100005.41;;;17.27;45.22
26697;BME280;14312;52.614;13.496;2023-04-23T02:52:08;100006.59;;;17.21;45.44
26697;BME280;14312;52.614;13.496;2023-04-23T02:54:54;100005.63;;;17.17;45.98
26697;BME280;14312;52.614;13.496;2023-04-23T02:57:40;100007.63;;;17.11;45.99
26697;BME280;14312;52.614;13.496;2023-04-23T03:00:27;100007.41;;;17.08;46.78
26697;BME280;14312;52.614;13.496;2023-04-23T03:03:13;100000.03;;;17.00;46.73
26697;BME280;14312;52.614;13.496;2023-04-23T03:06:00;99995.84;;;16.94;46.82
26697;BME280;14312;52.614;13.496;2023-04-23T03:08:46;99998.41;;;16.85;46.82
26697;BME280;14312;52.614;13.496;2023-04-23T03:11:32;99996.63;;;16.80;47.08
26697;BME280;14312;52.614;13.496;2023-04-23T03:14:18;99989.13;;;16.77;47.24
26697;BME280;14312;52.614;13.496;2023-04-23T03:17:04;99982.25;;;16.71;47.22
26697;BME280;14312;52.614;13.496;2023-04-23T03:19:51;99992.41;;;16.74;47.32
26697;BME280;14312;52.614;13.496;2023-04-23T03:22:37;99985.44;;;16.73;47.52
26697;BME280;14312;52.614;13.496;2023-04-23T03:25:22;99986.53;;;16.72;47.73
26697;BME280;14312;52.614;13.496;2023-04-23T03:28:10;99990.81;;;16.73;47.99
26697;BME280;14312;52.614;13.496;2023-04-23T03:30:56;99984.63;;;16.73;47.99
26697;BME280;14312;52.614;13.496;2023-04-23T03:33:42;99985.44;;;16.73;47.89
26697;BME280;14312;52.614;13.496;2023-04-23T03:36:28;99990.81;;;16.73;48.25
26697;BME280;14312;52.614;13.496;2023-04-23T03:39:14;99991.41;;;16.70;48.33
26697;BME280;14312;52.614;13.496;2023-04-23T03:42:00;99997.38;;;16.67;48.41
26697;BME280;14312;52.614;13.496;2023-04-23T03:44:46;99994.19;;;16.65;48.90
26697;BME280;14312;52.614;13.496;2023-04-23T03:47:32;99977.59;;;16.58;49.21
26697;BME280;14312;52.614;13.496;2023-04-23T03:50:18;99986.84;;;16.52;49.10
26697;BME280;14312;52.614;13.496;2023-04-23T03:53:05;99992.31;;;16.47;49.80
26697;BME280;14312;52.614;13.496;2023-04-23T03:55:51;99987.53;;;16.44;50.72
26697;BME280;14312;52.614;13.496;2023-04-23T03:58:37;99989.22;;;16.40;50.82
26697;BME280;14312;52.614;13.496;2023-04-23T04:01:23;99987.72;;;16.34;50.52
26697;BME280;14312;52.614;13.496;2023-04-23T04:04:09;99986.09;;;16.33;50.61
26697;BME280;14312;52.614;13.496;2023-04-23T04:06:55;99977.53;;;16.31;50.88
26697;BME280;14312;52.614;13.496;2023-04-23T04:09:41;99983.19;;;16.29;50.72
26697;BME280;14312;52.614;13.496;2023-04-23T04:12:28;99975.94;;;16.30;50.99
26697;BME280;14312;52.614;13.496;2023-04-23T04:15:14;99970.56;;;16.30;50.70
26697;BME280;14312;52.614;13.496;2023-04-23T04:18:02;99978.31;;;16.31;51.06
26697;BME280;14312;52.614;13.496;2023-04-23T04:20:48;99972.16;;;16.31;51.07
26697;BME280;14312;52.614;13.496;2023-04-23T04:23:35;99972.66;;;16.33;51.11
26697;BME280;14312;52.614;13.496;2023-04-23T04:26:21;99958.63;;;16.36;51.14
26697;BME280;14312;52.614;13.496;2023-04-23T04:29:07;99963.41;;;16.39;51.24
26697;BME280;14312;52.614;13.496;2023-04-23T04:31:55;99969.31;;;16.41;51.32
26697;BME280;14312;52.614;13.496;2023-04-23T04:34:41;99968.97;;;16.42;51.37
26697;BME280;14312;52.614;13.496;2023-04-23T04:37:27;99973.00;;;16.45;51.20
26697;BME280;14312;52.614;13.496;2023-04-23T04:40:13;99968.13;;;16.47;51.30
26697;BME280;14312;52.614;13.496;2023-04-23T04:42:59;99975.59;;;16.50;51.34
26697;BME280;14312;52.614;13.496;2023-04-23T04:45:45;99974.41;;;16.56;51.49
26697;BME280;14312;52.614;13.496;2023-04-23T04:48:31;99972.22;;;16.58;51.48
26697;BME280;14312;52.614;13.496;2023-04-23T04:51:17;99972.66;;;16.65;51.69
26697;BME280;14312;52.614;13.496;2023-04-23T04:54:03;99982.25;;;16.71;51.92
26697;BME280;14312;52.614;13.496;2023-04-23T04:56:49;99992.94;;;16.76;51.89
26697;BME280;14312;52.614;13.496;2023-04-23T04:59:35;100000.91;;;16.81;52.66
26697;BME280;14312;52.614;13.496;2023-04-23T05:02:21;99996.81;;;16.84;52.54
26697;BME280;14312;52.614;13.496;2023-04-23T05:05:08;100002.19;;;16.84;53.31
26697;BME280;14312;52.614;13.496;2023-04-23T05:07:54;99997.59;;;16.84;53.38
26697;BME280;14312;52.614;13.496;2023-04-23T05:10:40;99998.41;;;16.85;53.21
26697;BME280;14312;52.614;13.496;2023-04-23T05:13:26;99996.50;;;16.86;53.13
26697;BME280;14312;52.614;13.496;2023-04-23T05:16:12;99994.53;;;16.91;53.30
26697;BME280;14312;52.614;13.496;2023-04-23T05:18:58;99995.25;;;16.97;53.29
26697;BME280;14312;52.614;13.496;2023-04-23T05:21:44;99990.84;;;17.01;53.83
26697;BME280;14312;52.614;13.496;2023-04-23T05:24:30;99995.44;;;17.14;54.14
26697;BME280;14312;52.614;13.496;2023-04-23T05:27:17;100008.22;;;17.22;55.05
26697;BME280;14312;52.614;13.496;2023-04-23T05:30:04;100005.63;;;17.31;55.67
26697;BME280;14312;52.614;13.496;2023-04-23T05:32:51;100000.41;;;17.34;55.41
26697;BME280;14312;52.614;13.496;2023-04-23T05:35:37;100002.53;;;17.37;55.72
26697;BME280;14312;52.614;13.496;2023-04-23T05:38:23;100002.25;;;17.39;55.46
26697;BME280;14312;52.614;13.496;2023-04-23T05:41:08;100003.50;;;17.41;55.33
26697;BME280;14312;52.614;13.496;2023-04-23T05:43:55;100000.22;;;17.44;55.44
26697;BME280;14312;52.614;13.496;2023-04-23T05:46:41;100009.78;;;17.50;55.57
26697;BME280;14312;52.614;13.496;2023-04-23T05:49:27;100008.13;;;17.54;55.16
26697;BME280;14312;52.614;13.496;2023-04-23T05:52:13;100013.00;;;17.66;55.90
26697;BME280;14312;52.614;13.496;2023-04-23T05:54:59;100013.91;;;17.75;56.42
26697;BME280;14312;52.614;13.496;2023-04-23T05:57:45;100013.97;;;17.84;56.14
26697;BME280;14312;52.614;13.496;2023-04-23T06:00:31;100016.44;;;17.94;56.15
26697;BME280;14312;52.614;13.496;2023-04-23T06:03:17;100028.69;;;18.00;56.01
26697;BME280;14312;52.614;13.496;2023-04-23T06:06:03;100015.59;;;18.07;55.95
26697;BME280;14312;52.614;13.496;2023-04-23T06:08:49;100014.88;;;18.15;55.96
26697;BME280;14312;52.614;13.496;2023-04-23T06:11:35;100014.44;;;18.22;55.76
26697;BME280;14312;52.614;13.496;2023-04-23T06:14:22;100014.22;;;18.32;56.16
26697;BME280;14312;52.614;13.496;2023-04-23T06:17:08;100012.69;;;18.39;56.64
26697;BME280;14312;52.614;13.496;2023-04-23T06:19:54;100012.88;;;18.43;56.00
26697;BME280;14312;52.614;13.496;2023-04-23T06:22:40;100008.47;;;18.47;55.74
26697;BME280;14312;52.614;13.496;2023-04-23T06:25:26;100010.72;;;18.54;55.90
26697;BME280;14312;52.614;13.496;2023-04-23T06:28:12;100013.94;;;18.56;55.49
26697;BME280;14312;52.614;13.496;2023-04-23T06:30:58;100018.72;;;18.59;55.80
26697;BME280;14312;52.614;13.496;2023-04-23T06:33:43;100016.53;;;18.61;55.34
26697;BME280;14312;52.614;13.496;2023-04-23T06:36:30;100016.53;;;18.61;55.07
26697;BME280;14312;52.614;13.496;2023-04-23T06:39:17;100013.50;;;18.62;55.45
26697;BME280;14312;52.614;13.496;2023-04-23T06:42:03;100021.28;;;18.64;55.75
26697;BME280;14312;52.614;13.496;2023-04-23T06:44:49;100022.38;;;18.63;55.91
26697;BME280;14312;52.614;13.496;2023-04-23T06:47:36;100016.53;;;18.61;55.36
26697;BME280;14312;52.614;13.496;2023-04-23T06:50:22;100013.81;;;18.61;55.35
26697;BME280;14312;52.614;13.496;2023-04-23T06:53:08;100018.09;;;18.62;55.45
26697;BME280;14312;52.614;13.496;2023-04-23T06:55:53;100011.13;;;18.61;55.63
26697;BME280;14312;52.614;13.496;2023-04-23T06:58:39;100016.53;;;18.61;55.34
26697;BME280;14312;52.614;13.496;2023-04-23T07:01:25;100018.09;;;18.62;55.33
26697;BME280;14312;52.614;13.496;2023-04-23T07:04:12;100020.47;;;18.63;55.97
26697;BME280;14312;52.614;13.496;2023-04-23T07:06:58;100021.28;;;18.64;56.19
26697;BME280;14312;52.614;13.496;2023-04-23T07:09:44;100022.88;;;18.65;55.64
26697;BME280;14312;52.614;13.496;2023-04-23T07:12:30;100015.59;;;18.65;55.59
26697;BME280;14312;52.614;13.496;2023-04-23T07:15:16;100020.03;;;18.70;56.27
26697;BME280;14312;52.614;13.496;2023-04-23T07:18:03;100031.66;;;18.70;56.30
26697;BME280;14312;52.614;13.496;2023-04-23T07:20:49;100034.03;;;18.72;56.37
26697;BME280;14312;52.614;13.496;2023-04-23T07:23:35;100040.84;;;18.69;56.60
26697;BME280;14312;52.614;13.496;2023-04-23T07:26:21;100034.47;;;18.65;56.17
26697;BME280;14312;52.614;13.496;2023-04-23T07:29:08;100033.31;;;18.58;56.25
26697;BME280;14312;52.614;13.496;2023-04-23T07:31:55;100038.91;;;18.48;56.60
26697;BME280;14312;52.614;13.496;2023-04-23T07:34:41;100044.56;;;18.37;56.37
26697;BME280;14312;52.614;13.496;2023-04-23T07:37:27;100044.00;;;18.27;56.97
26697;BME280;14312;52.614;13.496;2023-04-23T07:40:16;100043.44;;;18.16;57.16
26697;BME280;14312;52.614;13.496;2023-04-23T07:43:02;100051.28;;;18.04;58.06
26697;BME280;14312;52.614;13.496;2023-04-23T07:45:48;100056.88;;;17.94;58.83
26697;BME280;14312;52.614;13.496;2023-04-23T07:48:34;100058.81;;;17.80;58.69
26697;BME280;14312;52.614;13.496;2023-04-23T07:51:20;100053.94;;;17.68;59.02
26697;BME280;14312;52.614;13.496;2023-04-23T07:54:08;100048.72;;;17.58;59.49
26697;BME280;14312;52.614;13.496;2023-04-23T07:56:54;100056.69;;;17.49;59.72
26697;BME280;14312;52.614;13.496;2023-04-23T07:59:41;100055.50;;;17.42;59.58
26697;BME280;14312;52.614;13.496;2023-04-23T08:02:27;100055.31;;;17.38;60.28
26697;BME280;14312;52.614;13.496;2023-04-23T08:05:13;100060.47;;;17.35;60.20
26697;BME280;14312;52.614;13.496;2023-04-23T08:07:59;100055.41;;;17.33;60.57
26697;BME280;14312;52.614;13.496;2023-04-23T08:10:45;100060.00;;;17.33;61.36
26697;BME280;14312;52.614;13.496;2023-04-23T08:13:31;100062.38;;;17.34;61.63
26697;BME280;14312;52.614;13.496;2023-04-23T08:16:17;100064.25;;;17.34;61.87
26697;BME280;14312;52.614;13.496;2023-04-23T08:19:03;100067.75;;;17.34;62.24
26697;BME280;14312;52.614;13.496;2023-04-23T08:21:50;100066.47;;;17.32;62.38
26697;BME280;14312;52.614;13.496;2023-04-23T08:24:37;100065.06;;;17.34;62.25
26697;BME280;14312;52.614;13.496;2023-04-23T08:27:23;100068.56;;;17.35;62.01
26697;BME280;14312;52.614;13.496;2023-04-23T08:30:09;100074.75;;;17.35;62.11
26697;BME280;14312;52.614;13.496;2023-04-23T08:32:56;100062.88;;;17.36;61.99
26697;BME280;14312;52.614;13.496;2023-04-23T08:35:41;100064.47;;;17.37;62.17
26697;BME280;14312;52.614;13.496;2023-04-23T08:38:27;100066.09;;;17.38;62.57
26697;BME280;14312;52.614;13.496;2023-04-23T08:41:14;100061.69;;;17.42;62.19
26697;BME280;14312;52.614;13.496;2023-04-23T08:47:01;100058.09;;;17.47;62.32
26697;BME280;14312;52.614;13.496;2023-04-23T08:49:53;100063.88;;;17.54;62.55
26697;BME280;14312;52.614;13.496;2023-04-23T08:52:52;100067.28;;;17.59;63.00
26697;BME280;14312;52.614;13.496;2023-04-23T08:55:38;100066.41;;;17.64;62.41
26697;BME280;14312;52.614;13.496;2023-04-23T08:58:24;100068.69;;;17.71;62.69
26697;BME280;14312;52.614;13.496;2023-04-23T09:01:13;100067.47;;;17.77;62.48
26697;BME280;14312;52.614;13.496;2023-04-23T09:03:59;100064.69;;;17.82;62.64
26697;BME280;14312;52.614;13.496;2023-04-23T09:06:45;100069.84;;;17.92;62.73
26697;BME280;14312;52.614;13.496;2023-04-23T09:09:32;100069.78;;;17.97;62.54
26697;BME280;14312;52.614;13.496;2023-04-23T09:12:19;100069.53;;;18.07;62.31
26697;BME280;14312;52.614;13.496;2023-04-23T09:15:06;100069.41;;;18.12;62.39
26697;BME280;14312;52.614;13.496;2023-04-23T09:17:57;100074.59;;;18.22;62.22
26697;BME280;14312;52.614;13.496;2023-04-23T09:20:43;100075.25;;;18.28;61.79
26697;BME280;14312;52.614;13.496;2023-04-23T09:23:29;100079.25;;;18.30;61.62
26697;BME280;14312;52.614;13.496;2023-04-23T09:26:20;100077.38;;;18.31;61.47
26697;BME280;14312;52.614;13.496;2023-04-23T09:29:12;100075.56;;;18.26;61.63
26697;BME280;14312;52.614;13.496;2023-04-23T09:32:07;100091.06;;;18.21;62.12
26697;BME280;14312;52.614;13.496;2023-04-23T09:34:55;100082.41;;;18.10;61.39
26697;BME280;14312;52.614;13.496;2023-04-23T09:37:44;100086.22;;;18.09;61.48
26697;BME280;14312;52.614;13.496;2023-04-23T09:40:33;100082.63;;;18.00;61.25
26697;BME280;14312;52.614;13.496;2023-04-23T09:43:19;100083.84;;;17.94;61.34
26697;BME280;14312;52.614;13.496;2023-04-23T09:46:05;100083.44;;;17.87;61.58
26697;BME280;14312;52.614;13.496;2023-04-23T09:48:51;100090.06;;;17.81;61.37
26697;BME280;14312;52.614;13.496;2023-04-23T09:51:47;100092.34;;;17.74;61.42
26697;BME280;14312;52.614;13.496;2023-04-23T09:54:33;100096.25;;;17.68;61.43
26697;BME280;14312;52.614;13.496;2023-04-23T09:57:19;100098.53;;;17.60;61.04
26697;BME280;14312;52.614;13.496;2023-04-23T10:00:17;100107.81;;;17.54;61.46
26697;BME280;14312;52.614;13.496;2023-04-23T10:03:05;100105.78;;;17.46;60.80
26697;BME280;14312;52.614;13.496;2023-04-23T10:05:53;100112.38;;;17.40;60.89
26697;BME280;14312;52.614;13.496;2023-04-23T10:08:40;100106.06;;;17.31;60.97
26697;BME280;14312;52.614;13.496;2023-04-23T10:11:26;100103.47;;;17.26;60.81
26697;BME280;14312;52.614;13.496;2023-04-23T10:14:13;100103.84;;;17.19;61.06
26697;BME280;14312;52.614;13.496;2023-04-23T10:17:01;100110.63;;;17.17;61.18
26697;BME280;14312;52.614;13.496;2023-04-23T10:19:48;100123.06;;;17.13;61.23
26697;BME280;14312;52.614;13.496;2023-04-23T10:22:37;100125.28;;;17.11;61.16
26697;BME280;14312;52.614;13.496;2023-04-23T10:25:23;100125.34;;;17.06;61.17
26697;BME280;14312;52.614;13.496;2023-04-23T10:28:11;100133.44;;;17.06;60.94
26697;BME280;14312;52.614;13.496;2023-04-23T10:30:59;100139.41;;;17.03;61.29
26697;BME280;14312;52.614;13.496;2023-04-23T10:33:47;100129.75;;;17.02;61.29
26697;BME280;14312;52.614;13.496;2023-04-23T10:36:36;100133.22;;;17.02;61.42
26697;BME280;14312;52.614;13.496;2023-04-23T10:39:33;100135.63;;;17.04;62.36
26697;BME280;14312;52.614;13.496;2023-04-23T10:42:21;100134.22;;;17.06;61.32
26697;BME280;14312;52.614;13.496;2023-04-23T10:45:12;100142.25;;;17.11;62.75
26697;BME280;14312;52.614;13.496;2023-04-23T10:47:59;100124.38;;;17.15;61.72
26697;BME280;14312;52.614;13.496;2023-04-23T10:50:45;100127.50;;;17.22;61.80
26697;BME280;14312;52.614;13.496;2023-04-23T10:53:34;100117.34;;;17.33;61.58
26697;BME280;14312;52.614;13.496;2023-04-23T10:56:21;100123.16;;;17.40;61.43
26697;BME280;14312;52.614;13.496;2023-04-23T10:59:19;100116.66;;;17.55;61.87
26697;BME280;14312;52.614;13.496;2023-04-23T11:02:08;100124.81;;;17.69;61.53
26697;BME280;14312;52.614;13.496;2023-04-23T11:04:57;100121.78;;;17.84;61.13
26697;BME280;14312;52.614;13.496;2023-04-23T11:08:01;100116.59;;;18.01;61.66
26697;BME280;14312;52.614;13.496;2023-04-23T11:10:55;100132.94;;;18.18;60.87
26697;BME280;14312;52.614;13.496;2023-04-23T11:13:50;100125.00;;;18.35;60.80
26697;BME280;14312;52.614;13.496;2023-04-23T11:16:37;100129.47;;;18.54;60.29
26697;BME280;14312;52.614;13.496;2023-04-23T11:19:23;100125.81;;;18.72;60.48
26697;BME280;14312;52.614;13.496;2023-04-23T11:22:13;100126.91;;;18.93;59.34
26697;BME280;14312;52.614;13.496;2023-04-23T11:25:02;100122.84;;;19.04;59.01
26697;BME280;14312;52.614;13.496;2023-04-23T11:27:51;100117.03;;;19.11;58.21
26697;BME280;14312;52.614;13.496;2023-04-23T11:30:37;100119.41;;;19.12;58.20
26697;BME280;14312;52.614;13.496;2023-04-23T11:33:23;100116.69;;;19.12;58.19
26697;BME280;14312;52.614;13.496;2023-04-23T11:36:09;100123.22;;;19.11;57.84
26697;BME280;14312;52.614;13.496;2023-04-23T11:38:57;100122.75;;;19.09;57.84
26697;BME280;14312;52.614;13.496;2023-04-23T11:41:43;100121.16;;;19.08;57.97
26697;BME280;14312;52.614;13.496;2023-04-23T11:44:31;100133.97;;;19.03;57.71
26697;BME280;14312;52.614;13.496;2023-04-23T11:47:17;100139.50;;;18.98;57.61
26697;BME280;14312;52.614;13.496;2023-04-23T11:50:04;100132.91;;;18.90;57.74
26697;BME280;14312;52.614;13.496;2023-04-23T11:52:51;100138.94;;;18.87;57.79
26697;BME280;14312;52.614;13.496;2023-04-23T11:55:37;100137.97;;;18.83;58.25
26697;BME280;14312;52.614;13.496;2023-04-23T11:58:28;100141.59;;;18.78;58.10
26697;BME280;14312;52.614;13.496;2023-04-23T12:01:14;100130.28;;;18.76;58.22
26697;BME280;14312;52.614;13.496;2023-04-23T12:04:08;100133.78;;;18.77;58.91
26697;BME280;14312;52.614;13.496;2023-04-23T12:06:55;100134.78;;;18.81;58.52
26697;BME280;14312;52.614;13.496;2023-04-23T12:09:44;100133.91;;;18.94;59.02
26697;BME280;14312;52.614;13.496;2023-04-23T12:12:36;100126.25;;;19.10;58.96
26697;BME280;14312;52.614;13.496;2023-04-23T12:15:22;100123.94;;;19.26;58.82
26697;BME280;14312;52.614;13.496;2023-04-23T12:18:08;100139.75;;;19.41;58.28
26697;BME280;14312;52.614;13.496;2023-04-23T12:21:03;100130.75;;;19.54;57.92
26697;BME280;14312;52.614;13.496;2023-04-23T12:23:50;100131.31;;;19.65;58.02
26697;BME280;14312;52.614;13.496;2023-04-23T12:26:36;100127.53;;;19.74;57.97
26697;BME280;14312;52.614;13.496;2023-04-23T12:29:22;100125.50;;;19.88;57.96
26697;BME280;14312;52.614;13.496;2023-04-23T12:32:10;100134.63;;;20.10;58.12
26697;BME280;14312;52.614;13.496;2023-04-23T12:34:56;100140.53;;;20.29;57.50
26697;BME280;14312;52.614;13.496;2023-04-23T12:37:42;100136.59;;;20.44;56.79
26697;BME280;14312;52.614;13.496;2023-04-23T12:40:28;100142.34;;;20.51;55.91
26697;BME280;14312;52.614;13.496;2023-04-23T12:43:14;100144.56;;;20.49;55.23
26697;BME280;14312;52.614;13.496;2023-04-23T12:46:00;100145.03;;;20.42;55.29
26697;BME280;14312;52.614;13.496;2023-04-23T12:48:46;100141.69;;;20.37;55.40
26697;BME280;14312;52.614;13.496;2023-04-23T12:51:32;100142.31;;;20.33;55.44
26697;BME280;14312;52.614;13.496;2023-04-23T12:54:18;100137.72;;;20.34;55.63
26697;BME280;14312;52.614;13.496;2023-04-23T12:57:06;100139.47;;;20.39;55.86
26697;BME280;14312;52.614;13.496;2023-04-23T12:59:52;100141.22;;;20.43;56.19
26697;BME280;14312;52.614;13.496;2023-04-23T13:02:39;100132.31;;;20.51;55.85
26697;BME280;14312;52.614;13.496;2023-04-23T13:05:25;100127.22;;;20.58;55.64
26697;BME280;14312;52.614;13.496;2023-04-23T13:08:11;100129.75;;;20.63;55.51
26697;BME280;14312;52.614;13.496;2023-04-23T13:10:57;100122.56;;;20.67;55.58
26697;BME280;14312;52.614;13.496;2023-04-23T13:13:43;100124.84;;;20.74;55.10
26697;BME280;14312;52.614;13.496;2023-04-23T13:16:29;100125.94;;;20.82;55.62
26697;BME280;14312;52.614;13.496;2023-04-23T13:19:15;100114.75;;;20.92;55.51
26697;BME280;14312;52.614;13.496;2023-04-23T13:22:02;100114.25;;;20.98;54.67
26697;BME280;14312;52.614;13.496;2023-04-23T13:24:49;100117.16;;;20.93;54.35
26697;BME280;14312;52.614;13.496;2023-04-23T13:27:35;100119.88;;;20.85;54.08
26697;BME280;14312;52.614;13.496;2023-04-23T13:30:21;100124.03;;;20.74;54.77
26697;BME280;14312;52.614;13.496;2023-04-23T13:33:07;100111.59;;;20.73;55.07
26697;BME280;14312;52.614;13.496;2023-04-23T13:35:53;100105.03;;;20.82;55.14
26697;BME280;14312;52.614;13.496;2023-04-23T13:38:41;100112.53;;;20.94;54.90
26697;BME280;14312;52.614;13.496;2023-04-23T13:41:27;100106.31;;;21.02;54.83
26697;BME280;14312;52.614;13.496;2023-04-23T13:44:13;100104.84;;;21.13;55.10
26697;BME280;14312;52.614;13.496;2023-04-23T13:47:00;100096.03;;;21.33;55.19
26697;BME280;14312;52.614;13.496;2023-04-23T13:49:46;100090.63;;;21.63;54.75
26697;BME280;14312;52.614;13.496;2023-04-23T13:52:33;100091.75;;;21.91;54.62
26697;BME280;14312;52.614;13.496;2023-04-23T13:55:19;100089.69;;;22.17;54.07
26697;BME280;14312;52.614;13.496;2023-04-23T13:58:05;100098.44;;;22.44;53.97
26697;BME280;14312;52.614;13.496;2023-04-23T14:00:51;100082.25;;;22.68;53.39
26697;BME280;14312;52.614;13.496;2023-04-23T14:03:37;100080.63;;;22.88;52.10
26697;BME280;14312;52.614;13.496;2023-04-23T14:06:23;100081.00;;;22.98;51.11
26697;BME280;14312;52.614;13.496;2023-04-23T14:09:10;100076.38;;;22.99;49.91
26697;BME280;14312;52.614;13.496;2023-04-23T14:11:56;100071.75;;;22.99;49.70
26697;BME280;14312;52.614;13.496;2023-04-23T14:14:42;100078.75;;;23.00;47.41
26697;BME280;14312;52.614;13.496;2023-04-23T14:17:28;100078.53;;;22.93;46.66
26697;BME280;14312;52.614;13.496;2023-04-23T14:20:14;100071.91;;;22.82;45.90
26697;BME280;14312;52.614;13.496;2023-04-23T14:26:26;100072.63;;;23.03;46.43
26697;BME280;14312;52.614;13.496;2023-04-23T14:29:22;100060.00;;;23.20;45.04